Hauptseite
METAR-TAF:

METAR-TAF

Flughäfen :

Flughafen Nouakchott-Oumtounsy

Nouakchott, Mauretanien

Breite: 18-18-36N, Länge: 015-58-11W, Höhe: 3 m

Beobachtung

Neuester Wetterbericht von vor 15 Minuten, um 04:00 UTC
Wind 5 kt aus Ost/Nordost
Temperatur 11°C
Luftfeuchtigkeit 25%
Luftdruck 1018 hPa
Sichtweite: 8000 m

METAR: GQNO 210400Z 06005KT 8000 NSC 11/M08 Q1018 NOSIG

Zeit: 04:15 (04:15 UTC)

Prognose

Neuester Wetterbericht von vor 5 Stunden und 15 Minuten, um 23:00 UTC
Gültige Prognose vom 21 um 00 UTC bis 22 um 06 UTC
Wind 10 kt aus Nord/Nordost
Sichtweite: 8000 m

TAF: GQNO 202300Z 2100/2206 03010KT 8000 NSC

Wetterbeobachtungen und Prognosen von mehr als 4000 Flughäfen (METAR und TAF Bericht).

Die verfügbaren Stationen werden durch gelbe und rote Markierungen auf der Karte dargestellt.

Führen Sie die Maus auf sie, um den Namen der Station zu sehen.

Darauf klicken, um die Beobachtung von Wetterbeobachtungen und Prognosen zu sehen.

Um die Karte zu ändern : klicken Sie auf den grünen Tasten mit einem schwarzen Kreuz Zum Vergrößern, auf den grünen Button mit einem Gedankenstrich zu verkleinern, oder auf die grünen Pfeile für benachbarte Karten.


METAR-TAF: